sensor_id;sensor_type;location;lat;lon;timestamp;P1;P2;P0
48717;PMS5003;34521;33.042;-96.586;2023-04-02T00:05:55;0;0;
48717;PMS5003;34521;33.042;-96.586;2023-04-02T00:08:25;0;0;
48717;PMS5003;34521;33.042;-96.586;2023-04-02T00:10:46;0;0;
48717;PMS5003;34521;33.042;-96.586;2023-04-02T00:15:35;0;0;
48717;PMS5003;34521;33.042;-96.586;2023-04-02T00:18:00;0;0;
48717;PMS5003;34521;33.042;-96.586;2023-04-02T00:20:25;0;0;
48717;PMS5003;34521;33.042;-96.586;2023-04-02T00:22:50;0;0;
48717;PMS5003;34521;33.042;-96.586;2023-04-02T00:25:15;0;0;
48717;PMS5003;34521;33.042;-96.586;2023-04-02T00:27:40;0;0;
48717;PMS5003;34521;33.042;-96.586;2023-04-02T00:30:06;0;0;
48717;PMS5003;34521;33.042;-96.586;2023-04-02T00:32:30;0;0;
48717;PMS5003;34521;33.042;-96.586;2023-04-02T00:34:55;0;0;
48717;PMS5003;34521;33.042;-96.586;2023-04-02T00:37:21;0;0;
48717;PMS5003;34521;33.042;-96.586;2023-04-02T00:39:45;0;0;
48717;PMS5003;34521;33.042;-96.586;2023-04-02T00:42:11;0;0;
48717;PMS5003;34521;33.042;-96.586;2023-04-02T00:44:36;0;0;
48717;PMS5003;34521;33.042;-96.586;2023-04-02T00:47:02;0;0;
48717;PMS5003;34521;33.042;-96.586;2023-04-02T00:49:38;0;0;
48717;PMS5003;34521;33.042;-96.586;2023-04-02T00:51:52;0;0;
48717;PMS5003;34521;33.042;-96.586;2023-04-02T00:54:17;0;0;
48717;PMS5003;34521;33.042;-96.586;2023-04-02T00:56:42;0;0;
48717;PMS5003;34521;33.042;-96.586;2023-04-02T01:01:34;0;0;
48717;PMS5003;34521;33.042;-96.586;2023-04-02T01:03:56;0;0;
48717;PMS5003;34521;33.042;-96.586;2023-04-02T01:06:21;0;0;
48717;PMS5003;34521;33.042;-96.586;2023-04-02T01:08:50;0;0;
48717;PMS5003;34521;33.042;-96.586;2023-04-02T01:11:15;0;0;
48717;PMS5003;34521;33.042;-96.586;2023-04-02T01:13:37;0;0;
48717;PMS5003;34521;33.042;-96.586;2023-04-02T01:16:03;0;0;
48717;PMS5003;34521;33.042;-96.586;2023-04-02T01:18:29;0;0;
48717;PMS5003;34521;33.042;-96.586;2023-04-02T01:20:57;0;0;
48717;PMS5003;34521;33.042;-96.586;2023-04-02T01:23:17;0;0;
48717;PMS5003;34521;33.042;-96.586;2023-04-02T01:25:42;0;0;
48717;PMS5003;34521;33.042;-96.586;2023-04-02T01:28:08;0;0;
48717;PMS5003;34521;33.042;-96.586;2023-04-02T01:30:32;0;0;
48717;PMS5003;34521;33.042;-96.586;2023-04-02T01:32:56;0;0;
48717;PMS5003;34521;33.042;-96.586;2023-04-02T01:35:21;0;0;
48717;PMS5003;34521;33.042;-96.586;2023-04-02T01:37:48;0;0;
48717;PMS5003;34521;33.042;-96.586;2023-04-02T01:40:16;0;0;
48717;PMS5003;34521;33.042;-96.586;2023-04-02T01:42:37;0;0;
48717;PMS5003;34521;33.042;-96.586;2023-04-02T01:45:03;0;0;
48717;PMS5003;34521;33.042;-96.586;2023-04-02T01:47:26;0;0;
48717;PMS5003;34521;33.042;-96.586;2023-04-02T01:49:52;0;0;
48717;PMS5003;34521;33.042;-96.586;2023-04-02T01:52:17;0;0;
48717;PMS5003;34521;33.042;-96.586;2023-04-02T01:54:42;0;0;
48717;PMS5003;34521;33.042;-96.586;2023-04-02T01:57:06;0;0;
48717;PMS5003;34521;33.042;-96.586;2023-04-02T01:59:31;0;0;
48717;PMS5003;34521;33.042;-96.586;2023-04-02T02:01:57;0;0;
48717;PMS5003;34521;33.042;-96.586;2023-04-02T02:04:21;0;0;
48717;PMS5003;34521;33.042;-96.586;2023-04-02T02:06:46;0;0;
48717;PMS5003;34521;33.042;-96.586;2023-04-02T02:09:14;0;0;
48717;PMS5003;34521;33.042;-96.586;2023-04-02T02:11:37;0;0;
48717;PMS5003;34521;33.042;-96.586;2023-04-02T02:14:04;0;0;
48717;PMS5003;34521;33.042;-96.586;2023-04-02T02:16:27;0;0;
48717;PMS5003;34521;33.042;-96.586;2023-04-02T02:18:52;0;0;
48717;PMS5003;34521;33.042;-96.586;2023-04-02T02:21:20;0;0;
48717;PMS5003;34521;33.042;-96.586;2023-04-02T02:23:42;0;0;
48717;PMS5003;34521;33.042;-96.586;2023-04-02T02:26:07;0;0;
48717;PMS5003;34521;33.042;-96.586;2023-04-02T02:28:32;0;0;
48717;PMS5003;34521;33.042;-96.586;2023-04-02T02:30:58;0;0;
48717;PMS5003;34521;33.042;-96.586;2023-04-02T02:33:22;0;0;
48717;PMS5003;34521;33.042;-96.586;2023-04-02T02:35:48;0;0;
48717;PMS5003;34521;33.042;-96.586;2023-04-02T02:40:39;0;0;
48717;PMS5003;34521;33.042;-96.586;2023-04-02T02:43:02;0;0;
48717;PMS5003;34521;33.042;-96.586;2023-04-02T02:45:27;0;0;
48717;PMS5003;34521;33.042;-96.586;2023-04-02T02:47:52;0;0;
48717;PMS5003;34521;33.042;-96.586;2023-04-02T02:50:18;0;0;
48717;PMS5003;34521;33.042;-96.586;2023-04-02T02:52:44;0;0;
48717;PMS5003;34521;33.042;-96.586;2023-04-02T02:55:07;0;0;
48717;PMS5003;34521;33.042;-96.586;2023-04-02T02:57:34;0;0;
48717;PMS5003;34521;33.042;-96.586;2023-04-02T02:59:57;0;0;
48717;PMS5003;34521;33.042;-96.586;2023-04-02T03:02:23;0;0;
48717;PMS5003;34521;33.042;-96.586;2023-04-02T03:04:47;0;0;
48717;PMS5003;34521;33.042;-96.586;2023-04-02T03:07:12;0;0;
48717;PMS5003;34521;33.042;-96.586;2023-04-02T03:09:39;0;0;
48717;PMS5003;34521;33.042;-96.586;2023-04-02T03:12:05;0;0;
48717;PMS5003;34521;33.042;-96.586;2023-04-02T03:14:29;0;0;
48717;PMS5003;34521;33.042;-96.586;2023-04-02T03:16:55;0;0;
48717;PMS5003;34521;33.042;-96.586;2023-04-02T03:19:22;0;0;
48717;PMS5003;34521;33.042;-96.586;2023-04-02T03:21:43;0;0;
48717;PMS5003;34521;33.042;-96.586;2023-04-02T03:24:10;0;0;
48717;PMS5003;34521;33.042;-96.586;2023-04-02T03:26:33;0;0;
48717;PMS5003;34521;33.042;-96.586;2023-04-02T03:28:59;0;0;
48717;PMS5003;34521;33.042;-96.586;2023-04-02T03:31:24;0;0;
48717;PMS5003;34521;33.042;-96.586;2023-04-02T03:33:49;0;0;
48717;PMS5003;34521;33.042;-96.586;2023-04-02T03:36:15;0;0;
48717;PMS5003;34521;33.042;-96.586;2023-04-02T03:38:40;0;0;
48717;PMS5003;34521;33.042;-96.586;2023-04-02T03:41:04;0;0;
48717;PMS5003;34521;33.042;-96.586;2023-04-02T03:43:29;0;0;
48717;PMS5003;34521;33.042;-96.586;2023-04-02T03:45:54;0;0;
48717;PMS5003;34521;33.042;-96.586;2023-04-02T03:48:19;0;0;
48717;PMS5003;34521;33.042;-96.586;2023-04-02T03:50:44;0;0;
48717;PMS5003;34521;33.042;-96.586;2023-04-02T03:53:08;1;1;
48717;PMS5003;34521;33.042;-96.586;2023-04-02T03:55:34;0;0;
48717;PMS5003;34521;33.042;-96.586;2023-04-02T03:57:59;0;0;
48717;PMS5003;34521;33.042;-96.586;2023-04-02T04:00:24;0;0;
48717;PMS5003;34521;33.042;-96.586;2023-04-02T04:02:49;0;0;
48717;PMS5003;34521;33.042;-96.586;2023-04-02T04:05:20;0;0;
48717;PMS5003;34521;33.042;-96.586;2023-04-02T04:07:39;0;0;
48717;PMS5003;34521;33.042;-96.586;2023-04-02T04:10:03;0;0;
48717;PMS5003;34521;33.042;-96.586;2023-04-02T04:12:29;0;0;
48717;PMS5003;34521;33.042;-96.586;2023-04-02T04:14:55;0;0;
48717;PMS5003;34521;33.042;-96.586;2023-04-02T04:17:19;0;0;
48717;PMS5003;34521;33.042;-96.586;2023-04-02T04:19:45;0;0;
48717;PMS5003;34521;33.042;-96.586;2023-04-02T04:22:09;0;0;
48717;PMS5003;34521;33.042;-96.586;2023-04-02T04:24:34;0;0;
48717;PMS5003;34521;33.042;-96.586;2023-04-02T04:27:01;1;1;
48717;PMS5003;34521;33.042;-96.586;2023-04-02T04:29:38;0;0;
48717;PMS5003;34521;33.042;-96.586;2023-04-02T04:31:49;0;0;
48717;PMS5003;34521;33.042;-96.586;2023-04-02T04:34:16;1;1;
48717;PMS5003;34521;33.042;-96.586;2023-04-02T04:36:40;0;0;
48717;PMS5003;34521;33.042;-96.586;2023-04-02T04:39:04;1;1;
48717;PMS5003;34521;33.042;-96.586;2023-04-02T04:41:30;1;1;
48717;PMS5003;34521;33.042;-96.586;2023-04-02T04:43:55;1;1;
48717;PMS5003;34521;33.042;-96.586;2023-04-02T04:46:20;0;0;
48717;PMS5003;34521;33.042;-96.586;2023-04-02T04:48:47;0;0;
48717;PMS5003;34521;33.042;-96.586;2023-04-02T04:51:14;0;0;
48717;PMS5003;34521;33.042;-96.586;2023-04-02T04:53:36;0;0;
48717;PMS5003;34521;33.042;-96.586;2023-04-02T04:56:00;0;0;
48717;PMS5003;34521;33.042;-96.586;2023-04-02T04:58:26;1;0;
48717;PMS5003;34521;33.042;-96.586;2023-04-02T05:00:52;0;0;
48717;PMS5003;34521;33.042;-96.586;2023-04-02T05:03:16;0;0;
48717;PMS5003;34521;33.042;-96.586;2023-04-02T05:05:39;1;1;
48717;PMS5003;34521;33.042;-96.586;2023-04-02T05:08:05;1;1;
48717;PMS5003;34521;33.042;-96.586;2023-04-02T05:10:30;1;1;
48717;PMS5003;34521;33.042;-96.586;2023-04-02T05:12:55;0;0;
48717;PMS5003;34521;33.042;-96.586;2023-04-02T05:15:20;0;0;
48717;PMS5003;34521;33.042;-96.586;2023-04-02T05:17:46;0;0;
48717;PMS5003;34521;33.042;-96.586;2023-04-02T05:20:11;1;1;
48717;PMS5003;34521;33.042;-96.586;2023-04-02T05:22:35;0;0;
48717;PMS5003;34521;33.042;-96.586;2023-04-02T05:25:06;1;0;
48717;PMS5003;34521;33.042;-96.586;2023-04-02T05:27:27;1;1;
48717;PMS5003;34521;33.042;-96.586;2023-04-02T05:29:51;1;1;
48717;PMS5003;34521;33.042;-96.586;2023-04-02T05:32:16;0;0;
48717;PMS5003;34521;33.042;-96.586;2023-04-02T05:34:40;1;1;
48717;PMS5003;34521;33.042;-96.586;2023-04-02T05:37:05;1;1;
48717;PMS5003;34521;33.042;-96.586;2023-04-02T05:39:30;0;0;
48717;PMS5003;34521;33.042;-96.586;2023-04-02T05:41:56;0;0;
48717;PMS5003;34521;33.042;-96.586;2023-04-02T05:44:20;2;2;
48717;PMS5003;34521;33.042;-96.586;2023-04-02T05:46:46;1;1;
48717;PMS5003;34521;33.042;-96.586;2023-04-02T05:49:13;0;0;
48717;PMS5003;34521;33.042;-96.586;2023-04-02T05:51:37;1;1;
48717;PMS5003;34521;33.042;-96.586;2023-04-02T05:54:02;1;1;
48717;PMS5003;34521;33.042;-96.586;2023-04-02T05:56:26;2;2;
48717;PMS5003;34521;33.042;-96.586;2023-04-02T05:58:51;2;2;
48717;PMS5003;34521;33.042;-96.586;2023-04-02T06:01:18;1;1;
48717;PMS5003;34521;33.042;-96.586;2023-04-02T06:03:43;0;0;
48717;PMS5003;34521;33.042;-96.586;2023-04-02T06:06:06;1;1;
48717;PMS5003;34521;33.042;-96.586;2023-04-02T06:08:31;1;1;
48717;PMS5003;34521;33.042;-96.586;2023-04-02T06:10:57;0;0;
48717;PMS5003;34521;33.042;-96.586;2023-04-02T06:13:21;1;1;
48717;PMS5003;34521;33.042;-96.586;2023-04-02T06:15:46;1;1;
48717;PMS5003;34521;33.042;-96.586;2023-04-02T06:18:13;2;1;
48717;PMS5003;34521;33.042;-96.586;2023-04-02T06:20:36;1;1;
48717;PMS5003;34521;33.042;-96.586;2023-04-02T06:23:02;1;1;
48717;PMS5003;34521;33.042;-96.586;2023-04-02T06:25:26;1;1;
48717;PMS5003;34521;33.042;-96.586;2023-04-02T06:27:51;1;1;
48717;PMS5003;34521;33.042;-96.586;2023-04-02T06:30:17;2;2;
48717;PMS5003;34521;33.042;-96.586;2023-04-02T06:32:41;1;1;
48717;PMS5003;34521;33.042;-96.586;2023-04-02T06:35:10;1;1;
48717;PMS5003;34521;33.042;-96.586;2023-04-02T06:37:32;3;2;
48717;PMS5003;34521;33.042;-96.586;2023-04-02T06:39:57;2;2;
48717;PMS5003;34521;33.042;-96.586;2023-04-02T06:42:22;1;1;
48717;PMS5003;34521;33.042;-96.586;2023-04-02T06:44:47;1;1;
48717;PMS5003;34521;33.042;-96.586;2023-04-02T06:47:14;2;1;
48717;PMS5003;34521;33.042;-96.586;2023-04-02T06:49:43;2;2;
48717;PMS5003;34521;33.042;-96.586;2023-04-02T06:52:02;2;2;
48717;PMS5003;34521;33.042;-96.586;2023-04-02T06:54:27;2;2;
48717;PMS5003;34521;33.042;-96.586;2023-04-02T06:56:53;2;1;
48717;PMS5003;34521;33.042;-96.586;2023-04-02T06:59:17;3;2;
48717;PMS5003;34521;33.042;-96.586;2023-04-02T07:01:44;2;2;
48717;PMS5003;34521;33.042;-96.586;2023-04-02T07:04:08;3;3;
48717;PMS5003;34521;33.042;-96.586;2023-04-02T07:06:32;3;3;
48717;PMS5003;34521;33.042;-96.586;2023-04-02T07:08:57;3;3;
48717;PMS5003;34521;33.042;-96.586;2023-04-02T07:11:22;2;2;
48717;PMS5003;34521;33.042;-96.586;2023-04-02T07:13:48;1;1;
48717;PMS5003;34521;33.042;-96.586;2023-04-02T07:16:13;2;2;
48717;PMS5003;34521;33.042;-96.586;2023-04-02T07:18:38;2;2;
48717;PMS5003;34521;33.042;-96.586;2023-04-02T07:21:03;2;2;
48717;PMS5003;34521;33.042;-96.586;2023-04-02T07:23:27;1;1;
48717;PMS5003;34521;33.042;-96.586;2023-04-02T07:25:53;2;2;
48717;PMS5003;34521;33.042;-96.586;2023-04-02T07:28:18;2;2;
48717;PMS5003;34521;33.042;-96.586;2023-04-02T07:30:43;2;2;
48717;PMS5003;34521;33.042;-96.586;2023-04-02T07:33:10;4;4;
48717;PMS5003;34521;33.042;-96.586;2023-04-02T07:35:33;3;3;
48717;PMS5003;34521;33.042;-96.586;2023-04-02T07:37:58;3;3;
48717;PMS5003;34521;33.042;-96.586;2023-04-02T07:40:23;2;2;
48717;PMS5003;34521;33.042;-96.586;2023-04-02T07:42:48;2;1;
48717;PMS5003;34521;33.042;-96.586;2023-04-02T07:45:13;3;3;
48717;PMS5003;34521;33.042;-96.586;2023-04-02T07:47:38;3;3;
48717;PMS5003;34521;33.042;-96.586;2023-04-02T07:50:04;3;3;
48717;PMS5003;34521;33.042;-96.586;2023-04-02T07:52:28;3;3;
48717;PMS5003;34521;33.042;-96.586;2023-04-02T07:54:53;3;3;
48717;PMS5003;34521;33.042;-96.586;2023-04-02T07:57:18;2;2;
48717;PMS5003;34521;33.042;-96.586;2023-04-02T07:59:43;3;3;
48717;PMS5003;34521;33.042;-96.586;2023-04-02T08:04:34;3;3;
48717;PMS5003;34521;33.042;-96.586;2023-04-02T08:06:59;2;2;
48717;PMS5003;34521;33.042;-96.586;2023-04-02T08:09:24;3;3;
48717;PMS5003;34521;33.042;-96.586;2023-04-02T08:11:49;4;4;
48717;PMS5003;34521;33.042;-96.586;2023-04-02T08:14:14;4;3;
48717;PMS5003;34521;33.042;-96.586;2023-04-02T08:16:43;4;4;
48717;PMS5003;34521;33.042;-96.586;2023-04-02T08:19:04;3;3;
48717;PMS5003;34521;33.042;-96.586;2023-04-02T08:21:29;3;3;
48717;PMS5003;34521;33.042;-96.586;2023-04-02T08:23:54;2;2;
48717;PMS5003;34521;33.042;-96.586;2023-04-02T08:26:19;2;2;
48717;PMS5003;34521;33.042;-96.586;2023-04-02T08:28:44;4;3;
48717;PMS5003;34521;33.042;-96.586;2023-04-02T08:31:09;3;2;
48717;PMS5003;34521;33.042;-96.586;2023-04-02T08:33:34;3;3;
48717;PMS5003;34521;33.042;-96.586;2023-04-02T08:35:59;4;4;
48717;PMS5003;34521;33.042;-96.586;2023-04-02T08:38:25;4;4;
48717;PMS5003;34521;33.042;-96.586;2023-04-02T08:40:50;2;2;
48717;PMS5003;34521;33.042;-96.586;2023-04-02T08:45:43;3;3;
48717;PMS5003;34521;33.042;-96.586;2023-04-02T08:48:06;3;3;
48717;PMS5003;34521;33.042;-96.586;2023-04-02T08:50:31;3;3;
48717;PMS5003;34521;33.042;-96.586;2023-04-02T08:52:55;3;3;
48717;PMS5003;34521;33.042;-96.586;2023-04-02T08:55:22;4;4;
48717;PMS5003;34521;33.042;-96.586;2023-04-02T08:57:46;3;3;
48717;PMS5003;34521;33.042;-96.586;2023-04-02T09:00:18;3;3;
48717;PMS5003;34521;33.042;-96.586;2023-04-02T09:02:36;3;3;
48717;PMS5003;34521;33.042;-96.586;2023-04-02T09:05:02;3;3;
48717;PMS5003;34521;33.042;-96.586;2023-04-02T09:07:25;4;3;
48717;PMS5003;34521;33.042;-96.586;2023-04-02T09:09:50;3;3;
48717;PMS5003;34521;33.042;-96.586;2023-04-02T09:12:16;4;4;
48717;PMS5003;34521;33.042;-96.586;2023-04-02T09:14:49;2;2;
48717;PMS5003;34521;33.042;-96.586;2023-04-02T09:17:10;5;4;
48717;PMS5003;34521;33.042;-96.586;2023-04-02T09:19:32;3;3;
48717;PMS5003;34521;33.042;-96.586;2023-04-02T09:21:59;2;2;
48717;PMS5003;34521;33.042;-96.586;2023-04-02T09:24:20;3;3;
48717;PMS5003;34521;33.042;-96.586;2023-04-02T09:26:46;3;3;
48717;PMS5003;34521;33.042;-96.586;2023-04-02T09:29:19;3;3;
48717;PMS5003;34521;33.042;-96.586;2023-04-02T09:31:36;4;4;
48717;PMS5003;34521;33.042;-96.586;2023-04-02T09:34:01;3;2;
48717;PMS5003;34521;33.042;-96.586;2023-04-02T09:36:31;4;4;
48717;PMS5003;34521;33.042;-96.586;2023-04-02T09:38:57;2;2;
48717;PMS5003;34521;33.042;-96.586;2023-04-02T09:41:18;3;3;
48717;PMS5003;34521;33.042;-96.586;2023-04-02T09:43:41;4;4;
48717;PMS5003;34521;33.042;-96.586;2023-04-02T09:46:16;3;3;
48717;PMS5003;34521;33.042;-96.586;2023-04-02T09:48:32;3;3;
48717;PMS5003;34521;33.042;-96.586;2023-04-02T09:51:03;2;2;
48717;PMS5003;34521;33.042;-96.586;2023-04-02T09:53:26;1;1;
48717;PMS5003;34521;33.042;-96.586;2023-04-02T09:55:47;4;4;
48717;PMS5003;34521;33.042;-96.586;2023-04-02T09:58:12;2;2;
48717;PMS5003;34521;33.042;-96.586;2023-04-02T10:00:36;4;3;
48717;PMS5003;34521;33.042;-96.586;2023-04-02T10:03:03;3;3;
48717;PMS5003;34521;33.042;-96.586;2023-04-02T10:05:26;4;3;
48717;PMS5003;34521;33.042;-96.586;2023-04-02T10:07:52;4;3;
48717;PMS5003;34521;33.042;-96.586;2023-04-02T10:10:18;1;1;
48717;PMS5003;34521;33.042;-96.586;2023-04-02T10:12:43;5;5;
48717;PMS5003;34521;33.042;-96.586;2023-04-02T10:15:11;1;1;
48717;PMS5003;34521;33.042;-96.586;2023-04-02T10:17:32;2;2;
48717;PMS5003;34521;33.042;-96.586;2023-04-02T10:19:57;4;3;
48717;PMS5003;34521;33.042;-96.586;2023-04-02T10:22:22;2;2;
48717;PMS5003;34521;33.042;-96.586;2023-04-02T10:24:47;2;2;
48717;PMS5003;34521;33.042;-96.586;2023-04-02T10:27:14;3;3;
48717;PMS5003;34521;33.042;-96.586;2023-04-02T10:29:41;1;1;
48717;PMS5003;34521;33.042;-96.586;2023-04-02T10:32:04;3;3;
48717;PMS5003;34521;33.042;-96.586;2023-04-02T10:34:30;5;5;
48717;PMS5003;34521;33.042;-96.586;2023-04-02T10:36:53;3;2;
48717;PMS5003;34521;33.042;-96.586;2023-04-02T10:39:18;3;3;
48717;PMS5003;34521;33.042;-96.586;2023-04-02T10:41:43;3;2;
48717;PMS5003;34521;33.042;-96.586;2023-04-02T10:46:34;3;3;
48717;PMS5003;34521;33.042;-96.586;2023-04-02T10:49:00;2;2;
48717;PMS5003;34521;33.042;-96.586;2023-04-02T10:51:27;2;2;
48717;PMS5003;34521;33.042;-96.586;2023-04-02T10:53:49;4;4;
48717;PMS5003;34521;33.042;-96.586;2023-04-02T10:56:13;2;2;
48717;PMS5003;34521;33.042;-96.586;2023-04-02T10:58:39;2;2;
48717;PMS5003;34521;33.042;-96.586;2023-04-02T11:01:04;2;2;
48717;PMS5003;34521;33.042;-96.586;2023-04-02T11:03:30;3;3;
48717;PMS5003;34521;33.042;-96.586;2023-04-02T11:05:53;2;2;
48717;PMS5003;34521;33.042;-96.586;2023-04-02T11:08:19;2;2;
48717;PMS5003;34521;33.042;-96.586;2023-04-02T11:10:44;3;3;
48717;PMS5003;34521;33.042;-96.586;2023-04-02T11:13:11;2;2;
48717;PMS5003;34521;33.042;-96.586;2023-04-02T11:15:34;2;2;
48717;PMS5003;34521;33.042;-96.586;2023-04-02T11:17:58;3;2;
48717;PMS5003;34521;33.042;-96.586;2023-04-02T11:25:19;4;4;
48717;PMS5003;34521;33.042;-96.586;2023-04-02T11:27:38;3;3;
48717;PMS5003;34521;33.042;-96.586;2023-04-02T11:30:05;3;3;
48717;PMS5003;34521;33.042;-96.586;2023-04-02T11:32:35;3;3;
48717;PMS5003;34521;33.042;-96.586;2023-04-02T11:39:45;4;4;
48717;PMS5003;34521;33.042;-96.586;2023-04-02T11:44:34;4;4;
48717;PMS5003;34521;33.042;-96.586;2023-04-02T11:49:33;4;4;
48717;PMS5003;34521;33.042;-96.586;2023-04-02T11:51:49;3;3;
48717;PMS5003;34521;33.042;-96.586;2023-04-02T11:56:40;2;2;
48717;PMS5003;34521;33.042;-96.586;2023-04-02T11:59:05;3;3;
48717;PMS5003;34521;33.042;-96.586;2023-04-02T12:01:37;3;3;
48717;PMS5003;34521;33.042;-96.586;2023-04-02T12:04:00;2;2;
48717;PMS5003;34521;33.042;-96.586;2023-04-02T12:06:21;4;3;
48717;PMS5003;34521;33.042;-96.586;2023-04-02T12:08:46;3;3;
48717;PMS5003;34521;33.042;-96.586;2023-04-02T12:11:10;3;3;
48717;PMS5003;34521;33.042;-96.586;2023-04-02T12:16:00;4;4;
48717;PMS5003;34521;33.042;-96.586;2023-04-02T12:18:25;4;4;
48717;PMS5003;34521;33.042;-96.586;2023-04-02T12:20:51;2;2;
48717;PMS5003;34521;33.042;-96.586;2023-04-02T12:23:17;7;6;
48717;PMS5003;34521;33.042;-96.586;2023-04-02T12:25:40;5;5;
48717;PMS5003;34521;33.042;-96.586;2023-04-02T12:28:06;3;3;
48717;PMS5003;34521;33.042;-96.586;2023-04-02T12:30:30;3;3;
48717;PMS5003;34521;33.042;-96.586;2023-04-02T12:32:55;3;3;
48717;PMS5003;34521;33.042;-96.586;2023-04-02T12:35:25;3;3;
48717;PMS5003;34521;33.042;-96.586;2023-04-02T12:37:47;4;3;
48717;PMS5003;34521;33.042;-96.586;2023-04-02T12:40:15;4;4;
48717;PMS5003;34521;33.042;-96.586;2023-04-02T12:42:36;4;4;
48717;PMS5003;34521;33.042;-96.586;2023-04-02T12:45:01;3;3;
48717;PMS5003;34521;33.042;-96.586;2023-04-02T12:47:26;2;2;
48717;PMS5003;34521;33.042;-96.586;2023-04-02T12:49:51;3;3;
48717;PMS5003;34521;33.042;-96.586;2023-04-02T12:52:17;3;2;
48717;PMS5003;34521;33.042;-96.586;2023-04-02T12:54:43;1;1;
48717;PMS5003;34521;33.042;-96.586;2023-04-02T12:59:33;2;2;
48717;PMS5003;34521;33.042;-96.586;2023-04-02T13:01:56;2;2;
48717;PMS5003;34521;33.042;-96.586;2023-04-02T13:04:21;3;3;
48717;PMS5003;34521;33.042;-96.586;2023-04-02T13:06:47;3;3;
48717;PMS5003;34521;33.042;-96.586;2023-04-02T13:11:37;1;1;
48717;PMS5003;34521;33.042;-96.586;2023-04-02T13:14:02;2;1;
48717;PMS5003;34521;33.042;-96.586;2023-04-02T13:16:27;2;2;
48717;PMS5003;34521;33.042;-96.586;2023-04-02T13:19:06;3;3;
48717;PMS5003;34521;33.042;-96.586;2023-04-02T13:21:23;1;1;
48717;PMS5003;34521;33.042;-96.586;2023-04-02T13:23:42;3;3;
48717;PMS5003;34521;33.042;-96.586;2023-04-02T13:26:14;2;2;
48717;PMS5003;34521;33.042;-96.586;2023-04-02T13:28:32;3;2;
48717;PMS5003;34521;33.042;-96.586;2023-04-02T13:30:57;2;2;
48717;PMS5003;34521;33.042;-96.586;2023-04-02T13:33:22;2;2;
48717;PMS5003;34521;33.042;-96.586;2023-04-02T13:35:47;2;2;
48717;PMS5003;34521;33.042;-96.586;2023-04-02T13:38:12;3;3;
48717;PMS5003;34521;33.042;-96.586;2023-04-02T13:40:37;3;3;
48717;PMS5003;34521;33.042;-96.586;2023-04-02T13:43:02;4;4;
48717;PMS5003;34521;33.042;-96.586;2023-04-02T13:45:27;6;5;
48717;PMS5003;34521;33.042;-96.586;2023-04-02T13:47:52;7;7;
48717;PMS5003;34521;33.042;-96.586;2023-04-02T13:50:18;5;4;
48717;PMS5003;34521;33.042;-96.586;2023-04-02T13:52:42;4;4;
48717;PMS5003;34521;33.042;-96.586;2023-04-02T13:55:08;4;4;
48717;PMS5003;34521;33.042;-96.586;2023-04-02T13:57:32;5;5;
48717;PMS5003;34521;33.042;-96.586;2023-04-02T13:59:57;4;3;
48717;PMS5003;34521;33.042;-96.586;2023-04-02T14:02:23;3;3;
48717;PMS5003;34521;33.042;-96.586;2023-04-02T14:04:48;3;3;
48717;PMS5003;34521;33.042;-96.586;2023-04-02T14:07:17;4;3;
48717;PMS5003;34521;33.042;-96.586;2023-04-02T14:09:40;3;3;
48717;PMS5003;34521;33.042;-96.586;2023-04-02T14:12:04;3;3;
48717;PMS5003;34521;33.042;-96.586;2023-04-02T14:14:32;2;2;
48717;PMS5003;34521;33.042;-96.586;2023-04-02T14:16:57;3;3;
48717;PMS5003;34521;33.042;-96.586;2023-04-02T14:19:22;3;3;
48717;PMS5003;34521;33.042;-96.586;2023-04-02T14:21:47;2;2;
48717;PMS5003;34521;33.042;-96.586;2023-04-02T14:24:12;4;4;
48717;PMS5003;34521;33.042;-96.586;2023-04-02T14:26:35;3;2;
48717;PMS5003;34521;33.042;-96.586;2023-04-02T14:29:00;4;4;
48717;PMS5003;34521;33.042;-96.586;2023-04-02T14:31:25;3;3;
48717;PMS5003;34521;33.042;-96.586;2023-04-02T14:33:51;3;3;
48717;PMS5003;34521;33.042;-96.586;2023-04-02T14:36:15;3;3;
48717;PMS5003;34521;33.042;-96.586;2023-04-02T14:38:41;3;3;
48717;PMS5003;34521;33.042;-96.586;2023-04-02T14:41:05;3;2;
48717;PMS5003;34521;33.042;-96.586;2023-04-02T14:43:30;2;2;
48717;PMS5003;34521;33.042;-96.586;2023-04-02T14:45:58;4;4;
48717;PMS5003;34521;33.042;-96.586;2023-04-02T14:48:25;3;3;
48717;PMS5003;34521;33.042;-96.586;2023-04-02T14:50:45;3;3;
48717;PMS5003;34521;33.042;-96.586;2023-04-02T14:53:13;3;3;
48717;PMS5003;34521;33.042;-96.586;2023-04-02T14:55:36;3;3;
48717;PMS5003;34521;33.042;-96.586;2023-04-02T14:58:01;3;3;
48717;PMS5003;34521;33.042;-96.586;2023-04-02T15:00:27;2;2;
48717;PMS5003;34521;33.042;-96.586;2023-04-02T15:02:52;1;1;
48717;PMS5003;34521;33.042;-96.586;2023-04-02T15:05:17;3;3;
48717;PMS5003;34521;33.042;-96.586;2023-04-02T15:07:42;2;2;
48717;PMS5003;34521;33.042;-96.586;2023-04-02T15:10:07;3;3;
48717;PMS5003;34521;33.042;-96.586;2023-04-02T15:12:32;2;1;
48717;PMS5003;34521;33.042;-96.586;2023-04-02T15:14:57;2;2;
48717;PMS5003;34521;33.042;-96.586;2023-04-02T15:17:21;3;3;
48717;PMS5003;34521;33.042;-96.586;2023-04-02T15:19:46;2;2;
48717;PMS5003;34521;33.042;-96.586;2023-04-02T15:22:14;2;2;
48717;PMS5003;34521;33.042;-96.586;2023-04-02T15:24:39;3;3;
48717;PMS5003;34521;33.042;-96.586;2023-04-02T15:27:03;3;3;
48717;PMS5003;34521;33.042;-96.586;2023-04-02T15:29:30;2;2;
48717;PMS5003;34521;33.042;-96.586;2023-04-02T15:31:52;4;4;
48717;PMS5003;34521;33.042;-96.586;2023-04-02T15:34:19;2;2;
48717;PMS5003;34521;33.042;-96.586;2023-04-02T15:36:45;2;2;
48717;PMS5003;34521;33.042;-96.586;2023-04-02T15:39:11;3;3;
48717;PMS5003;34521;33.042;-96.586;2023-04-02T15:41:32;2;2;
48717;PMS5003;34521;33.042;-96.586;2023-04-02T15:43:59;3;3;
48717;PMS5003;34521;33.042;-96.586;2023-04-02T15:46:23;4;4;
48717;PMS5003;34521;33.042;-96.586;2023-04-02T15:48:50;2;2;
48717;PMS5003;34521;33.042;-96.586;2023-04-02T15:51:15;2;2;
48717;PMS5003;34521;33.042;-96.586;2023-04-02T15:53:40;3;3;
48717;PMS5003;34521;33.042;-96.586;2023-04-02T15:56:06;2;2;
48717;PMS5003;34521;33.042;-96.586;2023-04-02T15:58:31;2;2;
48717;PMS5003;34521;33.042;-96.586;2023-04-02T16:00:55;4;3;
48717;PMS5003;34521;33.042;-96.586;2023-04-02T16:03:19;3;3;
48717;PMS5003;34521;33.042;-96.586;2023-04-02T16:05:42;3;3;
48717;PMS5003;34521;33.042;-96.586;2023-04-02T16:08:14;2;2;
48717;PMS5003;34521;33.042;-96.586;2023-04-02T16:10:33;2;2;
48717;PMS5003;34521;33.042;-96.586;2023-04-02T16:12:57;2;2;
48717;PMS5003;34521;33.042;-96.586;2023-04-02T16:15:23;2;2;
48717;PMS5003;34521;33.042;-96.586;2023-04-02T16:17:49;3;3;
48717;PMS5003;34521;33.042;-96.586;2023-04-02T16:20:15;3;3;
48717;PMS5003;34521;33.042;-96.586;2023-04-02T16:22:38;2;2;
48717;PMS5003;34521;33.042;-96.586;2023-04-02T16:25:06;2;2;
48717;PMS5003;34521;33.042;-96.586;2023-04-02T16:27:28;3;2;
48717;PMS5003;34521;33.042;-96.586;2023-04-02T16:29:56;2;2;
48717;PMS5003;34521;33.042;-96.586;2023-04-02T16:32:21;4;4;
48717;PMS5003;34521;33.042;-96.586;2023-04-02T16:34:45;2;2;
48717;PMS5003;34521;33.042;-96.586;2023-04-02T16:37:10;3;3;
48717;PMS5003;34521;33.042;-96.586;2023-04-02T16:39:35;2;2;
48717;PMS5003;34521;33.042;-96.586;2023-04-02T16:42:01;3;3;
48717;PMS5003;34521;33.042;-96.586;2023-04-02T16:44:27;2;2;
48717;PMS5003;34521;33.042;-96.586;2023-04-02T16:46:54;3;3;